createdAt,value
2022-11-24T00:00:32.466Z,100375.84
2022-11-24T00:02:34.625Z,100374.22
2022-11-24T00:04:36.675Z,100382.47
2022-11-24T00:06:38.559Z,100377.94
2022-11-24T00:08:42.354Z,100378.63
2022-11-24T00:10:44.225Z,100389.72
2022-11-24T00:12:46.096Z,100386.00
2022-11-24T00:14:47.970Z,100388.16
2022-11-24T00:16:49.890Z,100388.09
2022-11-24T00:18:54.753Z,100382.72
2022-11-24T00:20:56.787Z,100390.94
2022-11-24T00:22:58.687Z,100384.47
2022-11-24T00:25:00.534Z,100387.34
2022-11-24T00:27:02.473Z,100401.13
2022-11-24T00:29:06.776Z,100407.00
2022-11-24T00:31:23.855Z,100396.75
2022-11-24T00:33:25.832Z,100403.81
2022-11-24T00:35:27.726Z,100400.13
2022-11-24T00:37:29.587Z,100405.91
2022-11-24T00:39:31.427Z,100400.72
2022-11-24T00:41:34.301Z,100401.72
2022-11-24T00:43:36.152Z,100398.03
2022-11-24T00:45:38.076Z,100400.44
2022-11-24T00:47:40.100Z,100393.72
2022-11-24T00:49:41.913Z,100393.38
2022-11-24T00:51:43.727Z,100393.88
2022-11-24T00:53:45.799Z,100391.28
2022-11-24T00:55:50.078Z,100389.50
2022-11-24T00:57:51.917Z,100385.09
2022-11-24T00:59:54.166Z,100377.28
2022-11-24T01:01:55.987Z,100372.41
2022-11-24T01:03:59.748Z,100372.72
2022-11-24T01:06:07.366Z,100363.16
2022-11-24T01:08:09.679Z,100368.78
2022-11-24T01:10:11.507Z,100372.06
2022-11-24T01:12:13.716Z,100372.72
2022-11-24T01:14:15.534Z,100363.69
2022-11-24T01:16:21.684Z,100364.59
2022-11-24T01:18:23.636Z,100364.91
2022-11-24T01:20:25.503Z,100362.00
2022-11-24T01:22:27.347Z,100365.69
2022-11-24T01:24:29.424Z,100368.28
2022-11-24T01:26:31.258Z,100379.81
2022-11-24T01:28:33.205Z,100378.34
2022-11-24T01:30:35.166Z,100373.31
2022-11-24T01:32:37.078Z,100389.34
2022-11-24T01:34:38.917Z,100378.94
2022-11-24T01:36:40.842Z,100380.53
2022-11-24T01:38:42.723Z,100372.47
2022-11-24T01:40:44.831Z,100384.47
2022-11-24T01:42:53.436Z,100388.69
2022-11-24T01:45:27.220Z,100393.91
2022-11-24T01:47:39.092Z,100381.38
2022-11-24T01:49:49.018Z,100375.94
2022-11-24T01:52:19.776Z,100374.69
2022-11-24T01:54:45.538Z,100375.09
2022-11-24T01:56:52.075Z,100376.94
2022-11-24T01:58:58.852Z,100373.25
2022-11-24T02:01:00.928Z,100383.66
2022-11-24T02:03:03.619Z,100375.50
2022-11-24T02:05:11.067Z,100387.78
2022-11-24T02:07:13.950Z,100390.56
2022-11-24T02:09:41.919Z,100383.31
2022-11-24T02:11:44.822Z,100388.94
2022-11-24T02:13:48.145Z,100388.88
2022-11-24T02:15:50.137Z,100381.72
2022-11-24T02:17:51.986Z,100385.66
2022-11-24T02:19:59.051Z,100368.09
2022-11-24T02:22:03.438Z,100383.31
2022-11-24T02:24:28.836Z,100383.66
2022-11-24T02:26:43.202Z,100383.66
2022-11-24T02:28:46.235Z,100380.50
2022-11-24T02:30:48.786Z,100371.97
2022-11-24T02:32:51.828Z,100382.09
2022-11-24T02:35:05.224Z,100388.38
2022-11-24T02:37:07.525Z,100387.78
2022-11-24T02:39:14.225Z,100385.13
2022-11-24T02:41:19.694Z,100391.31
2022-11-24T02:43:23.795Z,100390.13
2022-11-24T02:45:26.713Z,100388.16
2022-11-24T02:47:29.055Z,100385.97
2022-11-24T02:49:31.026Z,100388.06
2022-11-24T02:51:32.913Z,100372.00
2022-11-24T02:53:35.053Z,100389.47
2022-11-24T02:55:36.878Z,100387.31
2022-11-24T02:57:38.725Z,100387.25
2022-11-24T02:59:40.627Z,100383.31
2022-11-24T03:01:42.515Z,100383.56
2022-11-24T03:03:44.497Z,100386.50
2022-11-24T03:05:46.823Z,100392.56
2022-11-24T03:07:48.695Z,100391.53
2022-11-24T03:09:50.602Z,100381.63
2022-11-24T03:11:52.692Z,100400.69
2022-11-24T03:13:54.515Z,100392.69
2022-11-24T03:15:56.393Z,100400.50
2022-11-24T03:17:59.071Z,100392.63
2022-11-24T03:20:04.586Z,100393.16
2022-11-24T03:22:07.070Z,100397.94
2022-11-24T03:24:09.192Z,100394.66
2022-11-24T03:26:16.433Z,100388.47
2022-11-24T03:28:18.254Z,100387.97
2022-11-24T03:30:20.518Z,100378.38
2022-11-24T03:32:22.354Z,100381.31
2022-11-24T03:34:24.318Z,100401.28
2022-11-24T03:36:26.259Z,100388.78
2022-11-24T03:38:28.796Z,100371.16
2022-11-24T03:40:30.614Z,100390.78
2022-11-24T03:42:32.625Z,100393.31
2022-11-24T03:44:34.748Z,100394.31
2022-11-24T03:46:36.947Z,100399.22
2022-11-24T03:48:39.259Z,100401.78
2022-11-24T03:50:41.263Z,100406.50
2022-11-24T03:52:43.083Z,100411.88
2022-11-24T03:54:45.311Z,100409.63
2022-11-24T03:56:47.148Z,100411.13
2022-11-24T03:58:49.029Z,100412.53
2022-11-24T04:00:52.537Z,100411.13
2022-11-24T04:02:54.405Z,100403.22
2022-11-24T04:04:56.312Z,100405.00
2022-11-24T04:06:58.190Z,100411.69
2022-11-24T04:09:00.869Z,100405.72
2022-11-24T04:11:02.842Z,100411.16
2022-11-24T04:13:11.735Z,100401.50
2022-11-24T04:15:16.878Z,100404.88
2022-11-24T04:17:18.722Z,100415.88
2022-11-24T04:19:20.732Z,100408.75
2022-11-24T04:21:22.604Z,100409.75
2022-11-24T04:23:24.416Z,100409.88
2022-11-24T04:25:26.617Z,100418.38
2022-11-24T04:27:28.690Z,100412.34
2022-11-24T04:29:30.500Z,100425.06
2022-11-24T04:31:32.583Z,100429.66
2022-11-24T04:33:34.602Z,100432.09
2022-11-24T04:35:36.418Z,100429.78
2022-11-24T04:37:38.952Z,100431.41
2022-11-24T04:39:40.860Z,100436.50
2022-11-24T04:41:42.690Z,100437.56
2022-11-24T04:43:44.771Z,100440.75
2022-11-24T04:45:46.628Z,100434.34
2022-11-24T04:47:48.427Z,100436.88
2022-11-24T04:49:50.802Z,100425.41
2022-11-24T04:51:52.638Z,100431.19
2022-11-24T04:53:54.522Z,100436.03
2022-11-24T04:55:56.584Z,100431.31
2022-11-24T04:57:58.396Z,100444.94
2022-11-24T05:00:00.371Z,100441.16
2022-11-24T05:02:02.405Z,100443.53
2022-11-24T05:04:04.352Z,100444.28
2022-11-24T05:06:06.845Z,100452.19
2022-11-24T05:08:23.080Z,100458.97
2022-11-24T05:10:24.857Z,100460.72
2022-11-24T05:12:27.503Z,100453.13
2022-11-24T05:14:29.304Z,100455.13
2022-11-24T05:16:31.079Z,100457.97
2022-11-24T05:18:32.914Z,100458.41
2022-11-24T05:20:35.580Z,100453.63
2022-11-24T05:22:37.404Z,100456.16
2022-11-24T05:24:39.126Z,100452.38
2022-11-24T05:26:41.093Z,100440.69
2022-11-24T05:28:42.920Z,100443.78
2022-11-24T05:30:45.420Z,100450.53
2022-11-24T05:32:47.515Z,100456.41
2022-11-24T05:34:49.320Z,100459.84
2022-11-24T05:36:51.062Z,100457.66
2022-11-24T05:38:52.983Z,100462.94
2022-11-24T05:40:54.748Z,100461.59
2022-11-24T05:42:56.500Z,100475.13
2022-11-24T05:44:58.342Z,100471.16
2022-11-24T05:47:00.192Z,100468.16
2022-11-24T05:49:01.984Z,100468.00
2022-11-24T05:51:07.957Z,100469.84
2022-11-24T05:53:13.392Z,100463.28
2022-11-24T05:55:15.956Z,100469.44
2022-11-24T05:57:18.206Z,100463.06
2022-11-24T05:59:19.926Z,100468.41
2022-11-24T06:01:21.611Z,100475.16
2022-11-24T06:03:23.488Z,100481.78
2022-11-24T06:05:25.960Z,100474.56
2022-11-24T06:07:27.760Z,100477.59
2022-11-24T06:09:29.852Z,100477.28
2022-11-24T06:11:31.542Z,100469.88
2022-11-24T06:13:33.271Z,100481.78
2022-11-24T06:15:35.648Z,100489.47
2022-11-24T06:17:37.820Z,100493.06
2022-11-24T06:19:42.085Z,100484.97
2022-11-24T06:21:44.399Z,100502.63
2022-11-24T06:23:49.768Z,100501.13
2022-11-24T06:25:51.671Z,100504.97
2022-11-24T06:27:53.754Z,100499.13
2022-11-24T06:29:55.493Z,100507.34
2022-11-24T06:31:57.288Z,100511.88
2022-11-24T06:33:59.537Z,100511.94
2022-11-24T06:36:03.571Z,100501.28
2022-11-24T06:38:05.487Z,100522.16
2022-11-24T06:40:08.118Z,100508.25
2022-11-24T06:42:09.844Z,100528.28
2022-11-24T06:44:11.542Z,100529.19
2022-11-24T06:46:14.175Z,100535.94
2022-11-24T06:48:15.930Z,100534.19
2022-11-24T06:50:17.649Z,100540.53
2022-11-24T06:52:19.652Z,100536.09
2022-11-24T06:54:21.452Z,100538.19
2022-11-24T06:56:23.190Z,100534.81
2022-11-24T06:58:25.086Z,100534.75
2022-11-24T07:00:26.776Z,100533.41
2022-11-24T07:02:28.503Z,100539.28
2022-11-24T07:04:30.460Z,100532.72
2022-11-24T07:06:32.145Z,100528.88
2022-11-24T07:08:33.927Z,100534.75
2022-11-24T07:10:36.118Z,100533.56
2022-11-24T07:12:37.815Z,100535.59
2022-11-24T07:14:39.507Z,100541.50
2022-11-24T07:16:41.708Z,100535.56
2022-11-24T07:18:44.954Z,100537.94
2022-11-24T07:20:46.644Z,100539.38
2022-11-24T07:22:48.772Z,100545.09
2022-11-24T07:24:50.469Z,100553.56
2022-11-24T07:26:52.160Z,100556.84
2022-11-24T07:28:54.513Z,100557.69
2022-11-24T07:30:56.379Z,100555.34
2022-11-24T07:33:04.268Z,100561.84
2022-11-24T07:35:06.712Z,100551.69
2022-11-24T07:37:08.407Z,100554.31
2022-11-24T07:39:10.126Z,100560.41
2022-11-24T07:41:14.303Z,100561.63
2022-11-24T07:43:20.158Z,100561.72
2022-11-24T07:45:23.289Z,100557.19
2022-11-24T07:47:25.256Z,100562.09
2022-11-24T07:49:26.963Z,100563.53
2022-11-24T07:51:28.731Z,100553.03
2022-11-24T07:53:31.980Z,100558.25
2022-11-24T07:55:33.711Z,100555.50
2022-11-24T07:57:35.784Z,100551.66
2022-11-24T07:59:37.756Z,100548.84
2022-11-24T08:01:39.499Z,100545.84
2022-11-24T08:03:42.079Z,100546.13
2022-11-24T08:06:07.883Z,100542.22
2022-11-24T08:08:05.721Z,100547.53
2022-11-24T08:10:07.911Z,100555.50
2022-11-24T08:12:09.912Z,100553.13
2022-11-24T08:14:11.663Z,100551.13
2022-11-24T08:16:15.593Z,100550.00
2022-11-24T08:18:17.760Z,100550.69
2022-11-24T08:20:19.609Z,100546.03
2022-11-24T08:22:21.625Z,100548.75
2022-11-24T08:24:23.461Z,100542.56
2022-11-24T08:26:26.180Z,100533.97
2022-11-24T08:28:27.885Z,100544.59
2022-11-24T08:30:30.586Z,100544.69
2022-11-24T08:32:32.323Z,100556.16
2022-11-24T08:34:34.670Z,100556.69
2022-11-24T08:36:36.980Z,100563.00
2022-11-24T08:38:39.232Z,100569.41
2022-11-24T08:40:40.931Z,100563.97
2022-11-24T08:42:42.912Z,100563.88
2022-11-24T08:44:44.725Z,100563.22
2022-11-24T08:46:46.422Z,100567.56
2022-11-24T08:48:53.819Z,100550.56
2022-11-24T08:50:56.315Z,100559.81
2022-11-24T08:52:58.032Z,100556.53
2022-11-24T08:55:00.033Z,100555.09
2022-11-24T08:57:01.804Z,100556.06
2022-11-24T08:59:03.552Z,100566.00
2022-11-24T09:01:08.280Z,100567.34
2022-11-24T09:03:12.227Z,100570.16
2022-11-24T09:05:43.707Z,100561.44
2022-11-24T09:07:35.903Z,100559.13
2022-11-24T09:09:37.734Z,100559.31
2022-11-24T09:11:39.528Z,100561.97
2022-11-24T09:13:41.623Z,100562.16
2022-11-24T09:15:43.668Z,100561.97
2022-11-24T09:17:45.407Z,100569.22
2022-11-24T09:22:06.309Z,100555.84
2022-11-24T09:24:08.443Z,100550.59
2022-11-24T09:26:33.173Z,100553.31
2022-11-24T09:28:36.135Z,100555.31
2022-11-24T09:30:37.907Z,100556.41
2022-11-24T09:32:39.654Z,100552.47
2022-11-24T09:34:41.509Z,100566.13
2022-11-24T09:36:43.308Z,100560.50
2022-11-24T09:38:45.161Z,100557.06
2022-11-24T09:40:46.992Z,100564.91
2022-11-24T09:43:09.344Z,100568.03
2022-11-24T09:45:19.978Z,100565.22
2022-11-24T09:47:50.017Z,100568.00
2022-11-24T09:50:02.625Z,100571.50
2022-11-24T09:52:10.175Z,100593.09
2022-11-24T09:54:20.744Z,100585.09
2022-11-24T09:56:26.190Z,100561.22
2022-11-24T09:58:41.114Z,100581.00
2022-11-24T10:00:43.259Z,100587.81
2022-11-24T10:02:48.914Z,100572.56
2022-11-24T10:04:50.759Z,100577.16
2022-11-24T10:07:11.930Z,100580.06
2022-11-24T10:09:21.396Z,100581.75
2022-11-24T10:11:51.424Z,100578.06
2022-11-24T10:14:02.143Z,100575.03
2022-11-24T10:16:39.267Z,100576.19
2022-11-24T10:18:43.702Z,100583.81
2022-11-24T10:20:51.570Z,100577.22
2022-11-24T10:23:12.012Z,100591.16
2022-11-24T10:25:25.226Z,100586.53
2022-11-24T10:27:33.910Z,100584.91
2022-11-24T10:29:41.020Z,100582.94
2022-11-24T10:31:44.706Z,100583.72
2022-11-24T10:33:47.859Z,100562.53
2022-11-24T10:36:07.559Z,100572.53
2022-11-24T10:38:21.620Z,100576.88
2022-11-24T10:43:00.982Z,100576.63
2022-11-24T10:45:14.550Z,100572.59
2022-11-24T10:47:21.501Z,100586.34
2022-11-24T10:49:27.521Z,100588.72
2022-11-24T10:51:59.784Z,100582.66
2022-11-24T10:54:07.231Z,100582.81
2022-11-24T10:56:08.962Z,100580.41
2022-11-24T10:58:16.950Z,100586.19
2022-11-24T11:00:18.603Z,100585.25
2022-11-24T11:02:32.611Z,100592.25
2022-11-24T11:04:34.950Z,100587.66
2022-11-24T11:06:36.691Z,100600.34
2022-11-24T11:08:39.244Z,100587.03
2022-11-24T11:10:43.264Z,100598.69
2022-11-24T11:12:45.411Z,100591.53
2022-11-24T11:14:47.597Z,100590.13
2022-11-24T11:16:54.113Z,100594.59
2022-11-24T11:18:56.216Z,100593.22
2022-11-24T11:21:01.062Z,100594.31
2022-11-24T11:23:15.669Z,100598.25
2022-11-24T11:25:24.538Z,100590.22
2022-11-24T11:27:26.974Z,100598.03
2022-11-24T11:34:41.736Z,100596.88
2022-11-24T11:36:52.612Z,100600.78
2022-11-24T11:38:54.548Z,100600.72
2022-11-24T11:40:56.461Z,100597.84
2022-11-24T11:43:17.387Z,100595.06
2022-11-24T11:45:25.969Z,100599.09
2022-11-24T11:47:33.533Z,100603.47
2022-11-24T11:49:38.483Z,100590.88
2022-11-24T11:52:13.509Z,100600.66
2022-11-24T11:54:30.165Z,100594.50
2022-11-24T11:56:37.596Z,100590.47
2022-11-24T11:58:39.505Z,100593.84
2022-11-24T12:01:01.255Z,100587.88
2022-11-24T12:03:21.767Z,100596.72
2022-11-24T12:05:49.771Z,100601.41
2022-11-24T12:08:10.882Z,100601.66
2022-11-24T12:10:20.295Z,100597.50
2022-11-24T12:12:24.891Z,100602.78
2022-11-24T12:14:58.606Z,100597.34
2022-11-24T12:17:09.587Z,100591.25
2022-11-24T12:19:44.927Z,100597.47
2022-11-24T12:21:54.321Z,100588.25
2022-11-24T12:24:20.697Z,100587.88
2022-11-24T12:26:55.766Z,100589.03
2022-11-24T12:29:13.479Z,100584.22
2022-11-24T12:31:35.445Z,100593.25
2022-11-24T12:34:01.361Z,100590.47
2022-11-24T12:36:21.829Z,100590.31
2022-11-24T12:38:23.477Z,100597.25
2022-11-24T12:40:46.584Z,100594.66
2022-11-24T12:43:09.621Z,100598.16
2022-11-24T12:45:15.153Z,100592.63
2022-11-24T12:47:39.538Z,100597.41
2022-11-24T12:49:43.940Z,100596.63
2022-11-24T12:51:48.318Z,100603.75
2022-11-24T12:53:51.198Z,100603.28
2022-11-24T12:55:54.539Z,100599.38
2022-11-24T12:58:09.346Z,100601.56
2022-11-24T13:01:02.299Z,100605.19
2022-11-24T13:03:34.787Z,100611.16
2022-11-24T13:06:08.871Z,100609.41
2022-11-24T13:08:11.085Z,100604.41
2022-11-24T13:12:57.372Z,100608.97
2022-11-24T13:14:59.454Z,100584.09
2022-11-24T13:17:28.829Z,100602.78
2022-11-24T13:19:35.824Z,100604.41
2022-11-24T13:21:40.539Z,100597.69
2022-11-24T13:23:42.350Z,100599.38
2022-11-24T13:26:27.839Z,100601.94
2022-11-24T13:29:08.959Z,100603.00
2022-11-24T13:31:22.812Z,100599.00
2022-11-24T13:33:32.724Z,100604.47
2022-11-24T13:35:34.465Z,100604.09
2022-11-24T13:37:36.332Z,100603.75
2022-11-24T13:39:58.393Z,100602.91
2022-11-24T13:42:00.822Z,100605.94
2022-11-24T13:44:14.424Z,100600.63
2022-11-24T13:47:04.831Z,100615.19
2022-11-24T13:49:14.313Z,100616.59
2022-11-24T13:51:23.862Z,100615.75
2022-11-24T13:53:31.803Z,100620.75
2022-11-24T13:55:38.381Z,100618.59
2022-11-24T13:57:45.637Z,100618.50
2022-11-24T13:59:47.947Z,100621.22
2022-11-24T14:01:57.523Z,100625.91
2022-11-24T14:04:30.637Z,100615.88
2022-11-24T14:06:34.728Z,100615.59
2022-11-24T14:08:38.359Z,100623.00
2022-11-24T14:10:41.183Z,100616.59
2022-11-24T14:12:43.057Z,100615.75
2022-11-24T14:14:49.760Z,100609.94
2022-11-24T14:17:13.465Z,100606.53
2022-11-24T14:19:18.804Z,100620.56
2022-11-24T14:21:20.510Z,100629.44
2022-11-24T14:23:23.012Z,100632.81
2022-11-24T14:25:32.503Z,100625.94
2022-11-24T14:27:38.056Z,100626.31
2022-11-24T14:29:55.301Z,100637.97
2022-11-24T14:31:59.745Z,100645.66
2022-11-24T14:34:18.980Z,100642.38
2022-11-24T14:36:21.347Z,100647.38
2022-11-24T14:38:23.162Z,100646.81
2022-11-24T14:40:43.311Z,100640.88
2022-11-24T14:42:50.417Z,100641.09
2022-11-24T14:44:55.951Z,100651.28
2022-11-24T14:47:14.988Z,100651.22
2022-11-24T14:49:19.209Z,100655.69
2022-11-24T14:51:36.323Z,100651.81
2022-11-24T14:53:42.886Z,100640.47
2022-11-24T14:55:44.677Z,100653.56
2022-11-24T14:57:46.569Z,100650.16
2022-11-24T15:00:24.120Z,100645.84
2022-11-24T15:02:54.169Z,100651.16
2022-11-24T15:05:02.649Z,100659.47
2022-11-24T15:07:28.266Z,100653.03
2022-11-24T15:09:37.688Z,100658.25
2022-11-24T15:11:39.400Z,100658.25
2022-11-24T15:13:53.374Z,100661.63
2022-11-24T15:16:02.100Z,100663.16
2022-11-24T15:18:06.454Z,100662.19
2022-11-24T15:20:16.903Z,100662.88
2022-11-24T15:22:35.188Z,100681.09
2022-11-24T15:24:49.096Z,100671.47
2022-11-24T15:26:58.747Z,100670.34
2022-11-24T15:29:00.557Z,100681.31
2022-11-24T15:31:05.253Z,100674.22
2022-11-24T15:33:13.907Z,100664.22
2022-11-24T15:35:15.750Z,100680.97
2022-11-24T15:37:17.484Z,100687.75
2022-11-24T15:39:19.234Z,100686.91
2022-11-24T15:41:23.174Z,100684.94
2022-11-24T15:43:32.090Z,100687.66
2022-11-24T15:45:35.220Z,100685.47
2022-11-24T15:47:37.159Z,100687.97
2022-11-24T15:49:38.950Z,100680.72
2022-11-24T15:51:43.850Z,100689.00
2022-11-24T15:53:50.187Z,100683.16
2022-11-24T15:55:52.922Z,100682.81
2022-11-24T15:57:54.668Z,100687.94
2022-11-24T15:59:59.383Z,100687.00
2022-11-24T16:02:01.203Z,100688.69
2022-11-24T16:04:03.336Z,100682.16
2022-11-24T16:06:05.325Z,100690.59
2022-11-24T16:08:13.076Z,100699.44
2022-11-24T16:10:29.059Z,100702.63
2022-11-24T16:12:31.054Z,100707.38
2022-11-24T16:14:32.971Z,100713.03
2022-11-24T16:16:34.826Z,100716.50
2022-11-24T16:18:36.726Z,100721.66
2022-11-24T16:20:38.409Z,100715.00
2022-11-24T16:22:40.479Z,100722.94
2022-11-24T16:24:42.305Z,100720.56
2022-11-24T16:26:44.133Z,100732.97
2022-11-24T16:28:46.008Z,100730.56
2022-11-24T16:30:51.128Z,100717.25
2022-11-24T16:32:52.944Z,100723.97
2022-11-24T16:34:54.750Z,100725.13
2022-11-24T16:36:56.627Z,100727.09
2022-11-24T16:38:59.983Z,100720.78
2022-11-24T16:41:01.824Z,100738.19
2022-11-24T16:43:03.758Z,100742.47
2022-11-24T16:45:06.149Z,100737.56
2022-11-24T16:47:08.094Z,100750.19
2022-11-24T16:49:09.896Z,100748.00
2022-11-24T16:51:12.816Z,100756.19
2022-11-24T16:53:14.570Z,100751.41
2022-11-24T16:55:16.411Z,100758.16
2022-11-24T16:57:18.189Z,100761.66
2022-11-24T16:59:20.917Z,100760.13
2022-11-24T17:01:22.787Z,100766.47
2022-11-24T17:03:24.589Z,100754.19
2022-11-24T17:05:26.268Z,100760.25
2022-11-24T17:07:28.464Z,100767.47
2022-11-24T17:09:30.246Z,100761.22
2022-11-24T17:11:31.973Z,100762.09
2022-11-24T17:13:34.320Z,100762.44
2022-11-24T17:15:44.548Z,100770.94
2022-11-24T17:18:16.228Z,100769.00
2022-11-24T17:20:10.300Z,100767.88
2022-11-24T17:22:11.988Z,100770.50
2022-11-24T17:24:13.700Z,100772.63
2022-11-24T17:26:17.464Z,100778.00
2022-11-24T17:28:19.790Z,100769.25
2022-11-24T17:30:21.465Z,100777.19
2022-11-24T17:32:23.251Z,100780.28
2022-11-24T17:34:24.977Z,100768.41
2022-11-24T17:36:27.774Z,100780.31
2022-11-24T17:38:29.504Z,100781.31
2022-11-24T17:40:31.236Z,100778.13
2022-11-24T17:42:33.042Z,100777.28
2022-11-24T17:44:35.139Z,100784.69
2022-11-24T17:46:36.965Z,100789.63
2022-11-24T17:48:38.803Z,100785.81
2022-11-24T17:50:40.661Z,100775.72
2022-11-24T17:52:42.478Z,100779.03
2022-11-24T17:54:46.694Z,100782.66
2022-11-24T17:56:48.851Z,100788.72
2022-11-24T17:58:55.271Z,100780.28
2022-11-24T18:00:57.988Z,100773.56
2022-11-24T18:02:59.814Z,100777.44
2022-11-24T18:05:01.504Z,100778.28
2022-11-24T18:07:03.303Z,100770.94
2022-11-24T18:09:05.358Z,100778.78
2022-11-24T18:11:10.261Z,100777.34
2022-11-24T18:13:22.380Z,100781.06
2022-11-24T18:15:35.220Z,100783.09
2022-11-24T18:17:36.916Z,100786.19
2022-11-24T18:19:38.630Z,100788.66
2022-11-24T18:21:42.030Z,100797.50
2022-11-24T18:23:44.242Z,100790.41
2022-11-24T18:25:56.585Z,100792.41
2022-11-24T18:27:58.369Z,100793.59
2022-11-24T18:30:00.181Z,100794.78
2022-11-24T18:32:02.179Z,100796.47
2022-11-24T18:34:05.615Z,100795.38
2022-11-24T18:36:07.742Z,100796.28
2022-11-24T18:38:10.796Z,100798.69
2022-11-24T18:40:12.671Z,100805.56
2022-11-24T18:42:15.339Z,100804.91
2022-11-24T18:44:17.246Z,100808.34
2022-11-24T18:46:19.353Z,100819.28
2022-11-24T18:48:22.444Z,100812.16
2022-11-24T18:50:24.267Z,100814.69
2022-11-24T18:52:26.075Z,100824.94
2022-11-24T18:54:28.034Z,100819.47
2022-11-24T18:56:29.792Z,100818.53
2022-11-24T18:58:33.789Z,100823.00
2022-11-24T19:00:35.551Z,100805.22
2022-11-24T19:02:37.343Z,100816.16
2022-11-24T19:04:39.298Z,100809.53
2022-11-24T19:06:41.017Z,100809.19
2022-11-24T19:08:43.034Z,100811.47
2022-11-24T19:10:45.973Z,100809.97
2022-11-24T19:12:47.675Z,100815.69
2022-11-24T19:14:49.426Z,100812.16
2022-11-24T19:16:51.321Z,100813.00
2022-11-24T19:18:55.962Z,100819.72
2022-11-24T19:20:57.812Z,100818.09
2022-11-24T19:22:59.592Z,100802.13
2022-11-24T19:25:01.406Z,100816.03
2022-11-24T19:27:03.264Z,100818.53
2022-11-24T19:29:06.450Z,100816.94
2022-11-24T19:31:10.648Z,100822.06
2022-11-24T19:33:12.481Z,100827.97
2022-11-24T19:35:14.433Z,100826.47
2022-11-24T19:37:16.140Z,100829.22
2022-11-24T19:39:18.009Z,100824.16
2022-11-24T19:41:21.481Z,100829.66
2022-11-24T19:43:23.296Z,100835.56
2022-11-24T19:45:25.075Z,100828.47
2022-11-24T19:47:27.115Z,100826.56
2022-11-24T19:49:28.886Z,100842.44
2022-11-24T19:51:36.299Z,100840.97
2022-11-24T19:53:38.066Z,100844.84
2022-11-24T19:55:39.852Z,100837.00
2022-11-24T19:57:41.568Z,100850.34
2022-11-24T19:59:43.441Z,100849.19
2022-11-24T20:01:45.681Z,100842.38
2022-11-24T20:03:53.756Z,100838.50
2022-11-24T20:05:56.321Z,100851.03
2022-11-24T20:07:58.244Z,100841.91
2022-11-24T20:10:06.041Z,100850.31
2022-11-24T20:12:09.406Z,100854.03
2022-11-24T20:14:16.138Z,100850.38
2022-11-24T20:16:20.514Z,100837.88
2022-11-24T20:18:22.437Z,100848.50
2022-11-24T20:20:24.200Z,100850.69
2022-11-24T20:22:25.950Z,100856.94
2022-11-24T20:24:27.753Z,100854.22
2022-11-24T20:26:41.977Z,100853.38
2022-11-24T20:28:43.803Z,100853.94
2022-11-24T20:30:45.661Z,100856.63
2022-11-24T20:32:47.435Z,100857.47
2022-11-24T20:34:49.155Z,100856.13
2022-11-24T20:36:51.681Z,100845.75
2022-11-24T20:38:54.327Z,100851.19
2022-11-24T20:41:08.972Z,100853.25
2022-11-24T20:43:11.280Z,100863.81
2022-11-24T20:45:13.191Z,100859.22
2022-11-24T20:47:14.862Z,100855.41
2022-11-24T20:49:18.914Z,100861.75
2022-11-24T20:51:23.229Z,100863.16
2022-11-24T20:53:24.919Z,100867.00
2022-11-24T20:55:26.800Z,100863.75
2022-11-24T20:57:28.513Z,100862.50
2022-11-24T20:59:30.197Z,100864.38
2022-11-24T21:01:34.915Z,100863.84
2022-11-24T21:03:41.399Z,100860.81
2022-11-24T21:05:44.934Z,100850.56
2022-11-24T21:07:46.698Z,100856.28
2022-11-24T21:09:48.425Z,100863.06
2022-11-24T21:11:50.115Z,100871.06
2022-11-24T21:13:52.738Z,100870.28
2022-11-24T21:15:55.334Z,100877.50
2022-11-24T21:17:57.012Z,100881.16
2022-11-24T21:20:01.146Z,100887.88
2022-11-24T21:22:03.102Z,100890.63
2022-11-24T21:24:07.587Z,100896.44
2022-11-24T21:26:14.831Z,100892.88
2022-11-24T21:28:18.156Z,100893.19
2022-11-24T21:30:19.887Z,100894.75
2022-11-24T21:32:21.722Z,100900.41
2022-11-24T21:34:23.400Z,100906.41
2022-11-24T21:36:26.205Z,100903.59
2022-11-24T21:38:28.037Z,100911.81
2022-11-24T21:40:32.862Z,100910.41
2022-11-24T21:42:34.625Z,100917.19
2022-11-24T21:44:36.694Z,100920.13
2022-11-24T21:46:44.085Z,100916.56
2022-11-24T21:48:50.287Z,100921.44
2022-11-24T21:50:52.131Z,100914.44
2022-11-24T21:52:53.815Z,100919.38
2022-11-24T21:54:55.578Z,100922.88
2022-11-24T21:56:57.444Z,100921.75
2022-11-24T21:58:59.218Z,100923.78
2022-11-24T22:01:05.600Z,100921.81
2022-11-24T22:03:07.566Z,100929.06
2022-11-24T22:05:09.498Z,100927.47
2022-11-24T22:07:11.456Z,100923.53
2022-11-24T22:09:17.695Z,100925.13
2022-11-24T22:11:23.035Z,100931.28
2022-11-24T22:13:24.783Z,100926.25
2022-11-24T22:15:26.486Z,100923.78
2022-11-24T22:17:30.688Z,100921.63
2022-11-24T22:19:32.458Z,100922.34
2022-11-24T22:21:34.319Z,100914.97
2022-11-24T22:23:36.631Z,100925.56
2022-11-24T22:25:38.317Z,100912.44
2022-11-24T22:27:39.992Z,100915.75
2022-11-24T22:29:41.707Z,100917.56
2022-11-24T22:31:43.580Z,100877.91
2022-11-24T22:33:46.157Z,100920.78
2022-11-24T22:36:01.099Z,100916.28
2022-11-24T22:38:02.852Z,100921.81
2022-11-24T22:40:05.101Z,100918.91
2022-11-24T22:42:06.806Z,100924.09
2022-11-24T22:44:08.544Z,100921.81
2022-11-24T22:46:14.076Z,100923.66
2022-11-24T22:48:15.796Z,100921.88
2022-11-24T22:50:17.635Z,100932.84
2022-11-24T22:52:19.454Z,100921.19
2022-11-24T22:54:21.213Z,100921.25
2022-11-24T22:56:24.128Z,100930.03
2022-11-24T22:58:25.996Z,100922.81
2022-11-24T23:00:27.817Z,100933.16
2022-11-24T23:02:29.595Z,100929.06
2022-11-24T23:04:31.535Z,100928.22
2022-11-24T23:06:34.488Z,100919.75
2022-11-24T23:08:36.718Z,100931.63
2022-11-24T23:10:38.544Z,100927.63
2022-11-24T23:12:40.285Z,100929.00
2022-11-24T23:14:41.971Z,100930.63
2022-11-24T23:16:43.896Z,100931.09
2022-11-24T23:18:52.436Z,100926.88
2022-11-24T23:20:55.687Z,100929.56
2022-11-24T23:22:57.565Z,100934.16
2022-11-24T23:24:59.277Z,100934.59
2022-11-24T23:27:00.985Z,100934.03
2022-11-24T23:29:04.019Z,100924.50
2022-11-24T23:31:09.240Z,100929.06
2022-11-24T23:33:11.033Z,100927.63
2022-11-24T23:35:14.142Z,100931.06
2022-11-24T23:37:15.974Z,100927.00
2022-11-24T23:39:17.708Z,100927.59
2022-11-24T23:41:22.648Z,100934.22
2022-11-24T23:43:24.463Z,100931.66
2022-11-24T23:45:26.214Z,100930.09
2022-11-24T23:47:27.984Z,100924.56
2022-11-24T23:49:29.722Z,100933.25
2022-11-24T23:51:33.219Z,100932.06
2022-11-24T23:53:35.812Z,100931.69
2022-11-24T23:55:37.676Z,100934.31
2022-11-24T23:57:39.402Z,100931.03
2022-11-24T23:59:41.248Z,100938.78
